Aviation Digital Data Service (ADDS)

Output produced by METARs form (1653 UTC 16 June 2019)
found at http://www.aviationweather.gov/metar/data/
 
UNAA 161630Z 35005MPS 9999 SCT049CB 20/14 Q1003 R20/090065 TEMPO 4000 -TSRA RMK QFE730
TAF UNAA 161357Z 1615/1715 18003G10MPS 9999 SCT020CB 
     TEMPO 1615/1618 22008G14MPS 3500 -TSRA 
     FM161800 26006G13MPS 3200 -SHRA BKN013CB 
     TEMPO 1618/1621 27011G18MPS -TSRA 
     TEMPO 1621/1703 28013G20MPS 1700 SHRA SCT005 BKN011CB 
     BECMG 1707/1709 20003G10MPS 9999 NSW
       
UOOO 161600Z 16004MPS CAVOK 05/00 Q1007 R19/CLRD60 NOSIG RMK QFE739/0985
TAF UOOO 161349Z 1615/1715 14006MPS 9999 SCT020 
     FM162100 VRB01MPS 3100 FU SCT007 
     TEMPO 1622/1703 0400 FG OVC003 
     BECMG 1705/1709 1900 RA BR FU SCT003 BKN006 
     BECMG 1711/1713 33006MPS
       
URWA 161630Z 17004MPS CAVOK 27/08 Q1008 R27/010070 NOSIG RMK QFE758/1010
TAF URWA 161400Z 1615/1624 21005G11MPS 9999 SCT030CB 
     PROB40 
     TEMPO 1615/1618 VRB07G14MPS 5000 -TSRA 
     BECMG 1618/1619 23003G08MPS
       
USCC 161630Z 26005MPS 9999 SCT030CB 11/09 Q1005 R27/190055 NOSIG RMK QFE734
TAF USCC 161400Z 1615/1715 30003G10MPS 5000 BR BKN030CB 
     TEMPO 1615/1621 26003G08MPS -SHRA BKN015CB 
     TEMPO 1621/1703 3100 BR
       
UNBB 161630Z 26010MPS 6000 -SHRA SCT010 BKN020CB 09/08 Q1008 R24/290157 NOSIG RMK QFE734
TAF UNBB 161400Z 1615/1715 21009G14MPS 9999 BKN015CB 
     TEMPO 1615/1621 27009G14MPS 3100 -SHRA SCT002 BKN011CB 
     BECMG 1621/1622 23006G12MPS 
     TEMPO 1622/1712 3100 -SHRA BKN011CB 
     PROB40 
     TEMPO 1622/1712 -TSRA 
     TEMPO 1712/1715 18003G08MPS
       
UWKE 161630Z 32003MPS CAVOK 14/08 Q1009 R21/210070 NOSIG RMK QFE740/0986
TAF UWKE 161345Z 1615/1715 32003G09MPS 9999 BKN020 
     TEMPO 1615/1618 31006G12MPS 2100 -SHRA BKN007 SCT015CB 
     TEMPO 1618/1703 34003G09MPS 3100 BR BKN011 
     FM170300 25006G12MPS 9999 BKN016 
     TEMPO 1707/1715 -SHRA SCT020CB
       
UUOB 161630Z 05003MPS CAVOK 22/17 Q1013 R11/010060 NOSIG
TAF UUOB 161400Z 1615/1624 02006MPS 9999 SCT040CB 
     PROB40 
     TEMPO 1615/1618 03008G13MPS 3100 -TSRA BKN020CB
       
URMO 161630Z 29002MPS 9999 SCT049CB 21/16 Q1011 R09/010070 NOSIG RMK QFE715/0953
TAF URMO 161400Z 1615/1624 20003G08MPS 9999 SCT030 
     TEMPO 1615/1621 VRB07G14MPS 3100 -TSRA BKN011 BKN030CB
       
ULPB 161130Z 24006MPS CAVOK 25/11 Q1010 R19/09//60 NOSIG RMK QFE754/1005
TAF ULPB 161056Z 1612/1621 28004G09MPS 9999 SCT020 
     TEMPO 1612/1616 31006G12MPS
       
USPP 161630Z VRB01MPS 9999 SCT043 10/08 Q1007 R21/290250 NOSIG RMK QFE745
TAF USPP 161400Z 1615/1715 32003G11MPS 9999 BKN016CB 
     TEMPO 1615/1618 3100 -SHRA 
     BECMG 1616/1618 22003G08MPS 
     BECMG 1618/1620 5000 BR SCT020 
     BECMG 1702/1704 9999 NSW
       
UIBB 161630Z AUTO 06003MPS 9999 // NCD 15/14 Q1004 RMK QFE711/0948
TAF UIBB 161400Z 1615/1715 07003MPS 9999 FEW002 SCT020CB 
     TEMPO 1618/1702 0300 FG VV001 
     TEMPO 1702/1715 VRB08MPS -TSRA
       
UUBP 161500Z 02004MPS 9999 SCT026 25/09 Q1015 R34/CLRD70 NOSIG RMK QFE743/0991
TAF UUBP 161054Z 1612/1621 01005G10MPS 9999 BKN025
       
UWKS 161630Z 32004MPS 9999 SCT040CB 18/08 Q1011 R24/010060 NOSIG RMK QFE744
TAF UWKS 161347Z 1615/1624 29005G10MPS 9999 SCT020 BKN030CB 
     TEMPO 1615/1619 26003MPS
       
UUOO 161630Z 00000MPS CAVOK 23/12 Q1013 R12/090070 NOSIG RMK QFE746
TAF UUOO 161400Z 1615/1624 03003MPS 9999 SCT040 
     PROB40 
     TEMPO 1615/1618 -TSRA BKN020CB
       
URWW 161630Z 03004MPS CAVOK 22/17 Q1010 R06/010070 TEMPO -TSRAGR BKN040CB
TAF URWW 161357Z 1615/1624 08003G08MPS 9999 BKN040CB 
     TEMPO 1615/1624 VRB06G16MPS 3100 -TSRAGR BKN011 BKN040CB
       
UHBB 161600Z 17002MPS 9999 -SHRA SCT033CB 13/13 Q1007 R36/090060 NOSIG RMK QFE738/0984
TAF AMD UHBB 161515Z 1615/1715 15003MPS 3100 -SHRA BKN010 BKN020CB 
     BECMG 1618/1620 0400 FG VV003 
     FM170000 05003MPS 9999 SCT010 BKN020CB 
     TEMPO 1700/1702 BKN005 BKN020CB 
     BECMG 1708/1710 34003MPS
       
UIII 161630Z 12002MPS 080V140 CAVOK 14/11 Q1004 R12/60D NOSIG RMK QFE711/0948
TAF UIII 161400Z 1615/1715 16003MPS 9999 SCT020CB 
     TEMPO 1618/1701 0300 FG VV001
       
UIAA 161630Z AUTO VRB01MPS 9999 NCD 10/07 Q1009 RMK QFE698/0931
TAF UIAA 161400Z 1615/1715 32003MPS 9999 SCT040CB
       
UWKD 161630Z 05002MPS 010V070 9999 FEW053CB 15/11 Q1010 R29/70D NOSIG RMK QFE746/0995
TAF UWKD 161400Z 1615/1715 30005MPS 9999 BKN020 TX21/1712Z TN10/1701Z 
     TEMPO 1615/1618 33006G12MPS -SHRA BKN033CB 
     TEMPO 1621/1705 26003MPS 3100 BR SCT011 
     TEMPO 1709/1715 32008G13MPS 5000 -SHRA BKN030CB
       
UNEE 161630Z 18005MPS CAVOK 14/07 Q1003 R23/CLRD60 NOSIG RMK QFE730
TAF UNEE 161400Z 1615/1715 20008G18MPS 9999 SCT013CB 
     TEMPO 1615/1618 3000 -SHRA BKN011CB 
     BECMG 1618/1620 27008G15MPS 
     TEMPO 1620/1705 30003G08MPS 3100 -SHRA BR SCT003 BKN011CB 
     BECMG 1710/1711 18003G08MPS
       
UHSS 161600Z 35011G16MPS 9999 -SHRA FEW006 BKN030CB 05/04 Q0998 R01/290060 NOSIG RMK MT OBSC QFE747/0996
TAF AMD UHSS 161625Z 1616/1721 35015G20MPS 9999 BKN007 BKN013CB OVC100 
     TEMPO 1616/1703 -SHRA 
     BECMG 1622/1624 BKN013CB 
     BECMG 1705/1706 31006MPS
       
UMKK 161630Z 26007MPS 9999 OVC011 18/15 Q1015 R24/60D NOSIG RMK QFE760/1014
TAF UMKK 161355Z 1615/1715 26005G10MPS 9999 BKN015 SCT030CB 
     TEMPO 1615/1703 -SHRA BKN011 BKN015CB 
     BECMG 1703/1705 31005G10MPS SCT020
       
UHWW 161630Z 00000MPS 9999 BCFG FEW002 06/05 Q1009 R07R/0///70 NOSIG RMK QFE756
TAF UHWW 161400Z 1615/1715 34003MPS 3100 BR BKN011 
     BECMG 1616/1619 0300 FG VV002 
     BECMG 1621/1623 3100 BR BKN012 
     FM170300 24003MPS 9999 SCT030 
     TEMPO 1703/1709 5000 -SHRA SCT020CB 
     BECMG 1712/1714 14003MPS
       
USSS 161630Z 32004MPS 9999 SCT046CB 12/05 Q1005 R26R/010060 NOSIG RMK QFE733/0977
TAF USSS 161400Z 1615/1715 32005G14MPS 9999 -SHRA BKN020CB 
     FM161700 34003G09MPS 3000 BR SCT011 
     BECMG 1705/1706 28003G13MPS 9999 NSW
       
UNKL 161630Z 00000MPS 9000 3900S BCFG SCT050CB 15/15 Q1002 R29/290055 NOSIG RMK QFE726
TAF UNKL 161352Z 1615/1715 29003MPS 3100 -SHRA BR SCT020CB 
     TEMPO 1615/1624 1000 -TSRA BR BKN012CB 
     FM170000 25005G10MPS 9999 SCT015CB 
     TEMPO 1702/1712 29010G16MPS 3100 -SHRA BKN012CB 
     BECMG 1712/1713 23003G08MPS
       
UUOK 161630Z 06003MPS 010V090 9999 BKN033CB 22/16 Q1014 R12/290055 NOSIG RMK QFE742/0990
TAF UUOK 161359Z 1615/1624 04003MPS 9999 -SHRA SCT020CB BKN033 
     PROB40 
     TEMPO 1615/1621 VRB15MPS -TSRA SQ BKN020CB
       
UWWW 161630Z 30003MPS CAVOK 19/06 Q1010 R33/CLRD60 NOSIG RMK QFE747/0996
TAF UWWW 161359Z 1615/1715 29003G09MPS 9999 SCT033 TX23/1711Z TN10/1703Z 
     TEMPO 1615/1618 33005G11MPS BKN020CB 
     TEMPO 1618/1706 27003MPS 
     TEMPO 1706/1715 32006G13MPS -SHRA BKN020CB
       
USCM 161630Z 28002MPS 9999 BKN040CB 15/04 Q1007 R18/090065 NOSIG RMK QFE718
TAF USCM 161400Z 1615/1624 31003G10MPS 9999 BKN040CB 
     TEMPO 1615/1624 5000 -SHRA BKN015CB
       
URMM 161630Z 30004MPS 9999 NSC 26/13 Q1009 R30/090070 NOSIG RMK QFE729/0972
TAF URMM 161400Z 1615/1715 26003G08MPS 9999 BKN030CB TX32/1711Z TN14/1702Z 
     TEMPO 1615/1624 VRB05G14MPS 5000 -TSRA BKN015 BKN020CB
       
UIUU 161630Z VRB01MPS 9999 FEW043 16/12 Q1004 R26/60D NOSIG RMK QFE709/0946
TAF UIUU 161400Z 1615/1715 27003G08MPS 9999 BKN025CB 
     TEMPO 1615/1621 VRB10MPS -TSRA 
     TEMPO 1703/1712 VRB12MPS -TSRA
       
ULMM 161630Z 01005MPS CAVOK 12/01 Q1009 R31/090070 NOSIG RMK QFE750
TAF ULMM 161350Z 1615/1715 31005G10MPS 9999 BKN020 
     TEMPO 1615/1618 34006G11MPS 
     BECMG 1618/1619 31003G08MPS 
     TEMPO 1619/1706 28003MPS 
     TEMPO 1706/1715 34003G08MPS -SHRA BKN020CB
       
URMN 161600Z 27002MPS 9999 SCT///CB BKN/// 25/17 Q1010 R24/010070 NOSIG RMK QFE721
TAF URMN 161400Z 1615/1624 24003G08MPS 9999 BKN030CB 
     TEMPO 1615/1621 VRB07G14MPS 3100 -TSRA SCT011 BKN020CB
       
USNN 161630Z 15003MPS CAVOK 11/03 Q1003 R21/0///65 NOSIG RMK QFE747
TAF USNN 161400Z 1615/1715 16003G08MPS 9999 BKN030 
     TEMPO 1615/1624 4000 -SHRA SCT011 BKN017CB 
     FM170300 18006G12MPS 5000 -SHRA BKN011 BKN017CB
       
UHHH 161630Z 34004MPS CAVOK 10/05 Q1007 R05R/090060 NOSIG RMK QFE749/0999
TAF UHHH 161345Z 1615/1721 36003MPS CAVOK 
     FM170300 04003MPS 9999 SCT020CB 
     TEMPO 1706/1712 3100 -SHRA SCT010 BKN020CB
       
UWOO 161630Z 29001MPS 9999 BKN049 19/04 Q1009 R26/65D NOSIG RMK QFE746/0995
TAF UWOO 161347Z 1615/1715 29003G09MPS 9999 SCT020CB SCT030 TX23/1711Z
TN08/1700Z 
     TEMPO 1615/1703 24005G12MPS 3100 -SHRA BKN015CB 
     BECMG 1703/1704 30007G12MPS
       
UWOR 161600Z 32003MPS CAVOK 16/06 Q1009 R25/CLRD65 NOSIG RMK QFE733/0977
TAF UWOR 161349Z 1615/1624 32006G13MPS 9999 SCT020CB SCT040 
     TEMPO 1615/1624 29004G11MPS 3100 -SHRA BKN015CB
       
URKK 161630Z 19003MPS 9999 FEW///CB 28/22 Q1007 R23L/CLRD70 TEMPO -TSRA SCT020CB RMK QFE752
TAF URKK 161355Z 1615/1715 07003G08MPS 9999 SCT030CB 
     TEMPO 1615/1621 3100 -TSRAGR SCT011 BKN020CB 
     BECMG 1621/1623 SCT040
       
UERP 161600Z 09003MPS 9999 FEW033 14/08 Q1013 NOSIG RMK QFE716
TAF UERP 161400Z 1615/1715 10003G08MPS 9999 SCT030
       
ULOO 161630Z 02003MPS 350V060 P5000 NSC 24/12 Q1014 R19/090070 NOSIG RMK QFE756
TAF ULOO 161359Z 1615/1624 02003MPS 6000 SCT020 
     BECMG 1618/1620 07003MPS 
     TEMPO 1622/1624 4000 -SHRA BKN011 SCT020CB
       
ULLI 161630Z 30004MPS 9999 FEW046 20/12 Q1013 R88/090060 NOSIG
TAF ULLI 161356Z 1615/1715 28003G08MPS 9999 SCT011 BKN025 
     TEMPO 1615/1621 32004G09MPS BKN025 
     TEMPO 1700/1704 26003MPS 2000 BR BKN011 
     TEMPO 1709/1715 32006G11MPS
       
USTR 161630Z 29002MPS CAVOK 09/06 Q1003 R30/290060 R03/290060 NOSIG RMK QFE743/0991
TAF USTR 161356Z 1615/1715 28004G13MPS 5000 -SHRA BR SCT007 BKN015CB 
     TEMPO 1615/1703 32004MPS 2100 BR VV004 
     BECMG 1703/1705 9999 NSW SCT020CB
       
UUEE 161630Z 35002MPS CAVOK 21/10 Q1014 R24C/CLRD62 R24L/CLRD62 NOSIG
TAF UUEE 161357Z 1615/1715 33005MPS 9999 BKN011 TX25/1713Z TN12/1701Z 
     BECMG 1617/1619 26003MPS 
     BECMG 1706/1708 33006G11MPS
       
URMT 161630Z 21003MPS 9999 SCT040 26/13 Q1009 R07/010070 NOSIG RMK QFE717
TAF URMT 161400Z 1615/1624 07003G08MPS 9999 SCT020
       
URSS 161630Z 27004MPS 9999 NSC 26/22 Q1007 R02/010070 R06/010070 NOSIG RMK R06/29005MPS QFE754
TAF URSS 161355Z 1615/1715 27005G10MPS 9999 SCT040CB BKN100 
     BECMG 1617/1618 05005MPS BKN015CB BKN100 
     TEMPO 1619/1704 VRB01MPS -TSRA 
     BECMG 1706/1707 20005MPS 
     BECMG 1711/1712 27005MPS
       
UHMM 161600Z 10006MPS 9999 OVC020CB 05/03 Q1016 RMK QFE747
TAF UHMM 161348Z 1615/1721 10006G12MPS 9999 -SHRA BKN015 OVC021CB 
     TEMPO 1615/1624 3100 -SHRA BR FEW004 OVC011CB 
     FM170000 03003G10MPS 6000 -SHRA BKN011 OVC015CB 
     TEMPO 1700/1721 09003G10MPS 1000 SHRA VV009
       
UWGG 161630Z 33003MPS 9999 FEW040 21/08 Q1011 R36R/090070 NOSIG
TAF UWGG 161350Z 1615/1715 28003MPS 9999 SCT030 TX25/1713Z TN12/1703Z 
     TEMPO 1706/1715 32005G10MPS BKN020CB
       
USRR 161630Z 11002MPS 060V150 9999 FEW040CB 12/09 Q1000 R25/290055 NOSIG RMK QFE744
TAF USRR 161355Z 1615/1715 20005G10MPS 9999 BKN020CB 
     TEMPO 1615/1715 4000 -SHRA BKN011 BKN015CB 
     BECMG 1701/1703 24005G10MPS 
     BECMG 1708/1710 27005G10MPS
       
UUYY 161630Z 20002MPS 9999 -SHRA FEW033CB 12/06 Q1005 R18/61D NOSIG RMK QFE745/0994
TAF UUYY 161400Z 1615/1715 27003MPS 9999 BKN015 BKN020CB 
     TEMPO 1615/1618 24006G14MPS 3100 -SHRA BKN007 BKN015CB 
     TEMPO 1618/1703 3100 -SHRA BR FEW007 BKN015CB 
     BECMG 1703/1704 33003MPS
       
ULAA 161630Z 03004MPS 360V070 9999 FEW040 14/02 Q1008 R08/CLRD68 NOSIG RMK QFE755/1007
TAF AMD ULAA 161543Z 1615/1715 03006MPS 9999 SCT030 
     TEMPO 1615/1618 01008G15MPS BKN015 
     BECMG 1618/1620 36003MPS 
     TEMPO 1706/1712 30006G11MPS BKN020
       
UNNT 161630Z 26008MPS 9999 BKN008 OVC030CB 11/09 Q1003 R25/290155 R16/290155 NOSIG RMK QFE742/0989
TAF AMD UNNT 161629Z 1616/1715 27008G15MPS 9999 -SHRA BKN008 BKN012CB 
     TEMPO 1616/1618 3100 -SHRA 
     FM161800 25007G15MPS 9999 BKN011CB 
     TEMPO 1618/1624 3100 -SHRA BKN005 BKN011CB 
     BECMG 1700/1702 23003G08MPS 
     TEMPO 1702/1712 24008G16MPS -SHRA
       
UNOO 161630Z 23004MPS 9999 BKN033CB 12/05 Q1006 R25/CLRD60 NOSIG RMK QFE746
TAF UNOO 161350Z 1615/1715 21004MPS 6000 SCT030CB BKN033 
     BECMG 1703/1705 22006G13MPS 
     TEMPO 1708/1715 2000 TSRAGR BKN007 BKN030CB
       
UWSS 161630Z 32006MPS CAVOK 23/08 Q1010 R30/010095 NOSIG RMK QFE744
TAF UWSS 161400Z 1615/1624 33003G08MPS 9999 BKN030 
     TEMPO 1615/1624 36003G08MPS 5000 -SHRA BKN020CB
       
UUDL 161630Z 29003MPS CAVOK 21/09 Q1012 R23/010060 NOSIG RMK QFE751
TAF UUDL 161355Z 1615/1715 29003MPS 9999 SCT040
       
UWUU 161630Z 27003MPS 9999 -SHRA OVC030CB 13/13 Q1008 R32L/290148 NOSIG
TAF UWUU 161352Z 1615/1715 28005G10MPS 9999 BKN020CB 
     TEMPO 1615/1618 32007G13MPS 3100 -TSRAGR BKN011CB 
     TEMPO 1618/1715 25003G08MPS
       
UHMA 161600Z 09004MPS CAVOK 15/01 Q1015 R01/////// NOSIG RMK END R01/09003MPS QFE758/1010
TAF UHMA 161337Z 1615/1715 18003MPS 9999 SCT040 
     TEMPO 1615/1621 11005MPS 
     BECMG 1621/1624 16007MPS 
     TEMPO 1700/1709 12008G13MPS -SHRA SCT030CB 
     TEMPO 1709/1715 12003MPS
       
URML 161630Z 19002MPS 9999 FEW230CB 23/17 Q1009 R14/01//70 NOSIG RMK QFE756/1009
TAF URML 161400Z 1615/1624 16003G08MPS 9999 SCT050CB 
     PROB40 
     TEMPO 1615/1621 -TSRA BKN040CB 
     TEMPO 1621/1624 26003G08MPS
       
URKA 161630Z 02004MPS CAVOK 28/15 Q1008 R04/010070 NOSIG RMK QFE752/1003
TAF URKA 161354Z 1615/1715 25003G08MPS 9999 SCT030CB 
     PROB40 
     TEMPO 1615/1619 -TSRA 
     TEMPO 1622/1705 03003G08MPS 3100 BR SCT011 SCT020CB
       
UUWW 161630Z 31003MPS 9999 BKN048 20/10 Q1015 R24/000070 NOSIG
TAF UUWW 161351Z 1615/1715 33003MPS 9999 SCT030 TX26/1712Z TN12/1701Z 
     TEMPO 1622/1704 3100 BR SCT011
       
UWLW 161600Z 04003MPS 8000 NSC 19/10 Q1010 R20/CLRD60 NOSIG RMK QFE752
TAF UWLW 161345Z 1615/1715 30003MPS 8000 SCT030 
     TEMPO 1615/1618 33006MPS 
     TEMPO 1706/1715 33006MPS
       
UEEE 161630Z 29001MPS CAVOK 11/08 Q1011 R23L/09//60 NOSIG RMK QFE750
TAF UEEE 161400Z 1615/1721 22003MPS CAVOK TX28/1705Z TN10/1618Z 
     FM162200 32006G11MPS 9999 SCT030CB BKN100
       
UHPP 161600Z 14004MPS 9999 -SHRA BKN007 OVC017CB 07/06 Q1023 R16R/CLRD70 NOSIG RMK QFE764/1019
TAF UHPP 161358Z 1615/1721 16003G12MPS 9999 -SHRA BKN007 BKN015CB 
     TEMPO 1615/1623 0900 -SHRA FG VV003 
     FM162300 15005G15MPS 3100 -SHRA BR BKN004 OVC015CB 
     TEMPO 1623/1721 12012G19MPS BKN003 OVC012CB